NWS8070 ULLI-ULAA
Flight info
| Callsign | NWS8070 |
|---|---|
| Flight time | N/A |
| Altitude | 34000 |
| Route | RELNI T693 DISUP T821 MAKOG |
| Aircraft | B772/H-VGDW/C |
Departure
| Time | 2026-05-01 11:48 |
|---|---|
| Airport | Pulkovo Airport (ULLI) |
Arrival
| Time | N/A |
|---|---|
| Airport | Talagi Airport (ULAA) |
| Time | Latitude | Longitude | Altitude | Speed | Heading |
|---|---|---|---|---|---|
| 2026-05-01 11:27 | 59.79608 | 30.26200 | 86 ft | 0 kts | 107° |
| 2026-05-01 11:41 | 59.79608 | 30.26201 | 84 ft | 1 kts | 107° |
| 2026-05-01 11:41 | 59.79599 | 30.26258 | 85 ft | 5 kts | 107° |
| 2026-05-01 11:41 | 59.79589 | 30.26320 | 84 ft | 5 kts | 107° |
| 2026-05-01 11:42 | 59.79558 | 30.26369 | 87 ft | 6 kts | 179° |
| 2026-05-01 11:42 | 59.79514 | 30.26362 | 86 ft | 6 kts | 174° |
| 2026-05-01 11:42 | 59.79488 | 30.26426 | 87 ft | 6 kts | 108° |
| 2026-05-01 11:42 | 59.79475 | 30.26509 | 86 ft | 6 kts | 107° |
| 2026-05-01 11:43 | 59.79454 | 30.26642 | 86 ft | 12 kts | 107° |
| 2026-05-01 11:43 | 59.79430 | 30.26798 | 88 ft | 12 kts | 107° |
| 2026-05-01 11:43 | 59.79406 | 30.26959 | 88 ft | 13 kts | 107° |
| 2026-05-01 11:44 | 59.79352 | 30.27313 | 89 ft | 13 kts | 107° |
| 2026-05-01 11:44 | 59.79325 | 30.27490 | 90 ft | 13 kts | 107° |
| 2026-05-01 11:44 | 59.79299 | 30.27666 | 88 ft | 13 kts | 106° |
| 2026-05-01 11:44 | 59.79273 | 30.27843 | 89 ft | 13 kts | 106° |
| 2026-05-01 11:45 | 59.79247 | 30.28020 | 90 ft | 13 kts | 106° |
| 2026-05-01 11:45 | 59.79229 | 30.28138 | 91 ft | 3 kts | 111° |
| 2026-05-01 11:45 | 59.79211 | 30.28189 | 91 ft | 6 kts | 134° |
| 2026-05-01 11:45 | 59.79175 | 30.28225 | 93 ft | 6 kts | 163° |
| 2026-05-01 11:46 | 59.79136 | 30.28248 | 93 ft | 6 kts | 163° |
| 2026-05-01 11:46 | 59.79098 | 30.28269 | 89 ft | 6 kts | 166° |
| 2026-05-01 11:46 | 59.79058 | 30.28276 | 92 ft | 6 kts | 187° |
| 2026-05-01 11:46 | 59.79036 | 30.28236 | 93 ft | 4 kts | 264° |
| 2026-05-01 11:47 | 59.79039 | 30.28220 | 93 ft | 0 kts | 285° |
| 2026-05-01 11:47 | 59.79044 | 30.28183 | 91 ft | 14 kts | 285° |
| 2026-05-01 11:48 | 59.79112 | 30.27711 | 90 ft | 70 kts | 287° |
| 2026-05-01 11:48 | 59.79327 | 30.26278 | 89 ft | 147 kts | 286° |
| 2026-05-01 11:48 | 59.79655 | 30.24015 | 502 ft | 177 kts | 285° |
| 2026-05-01 11:48 | 59.80013 | 30.21768 | 1772 ft | 159 kts | 287° |
| 2026-05-01 11:49 | 59.80330 | 30.19689 | 2861 ft | 160 kts | 286° |
| 2026-05-01 11:49 | 59.80647 | 30.17505 | 3418 ft | 168 kts | 285° |
| 2026-05-01 11:49 | 59.80977 | 30.15224 | 3986 ft | 176 kts | 287° |
| 2026-05-01 11:49 | 59.81326 | 30.12846 | 4560 ft | 183 kts | 287° |
| 2026-05-01 11:50 | 59.81687 | 30.10399 | 5180 ft | 188 kts | 288° |
| 2026-05-01 11:50 | 59.82058 | 30.07866 | 5728 ft | 196 kts | 288° |
| 2026-05-01 11:50 | 59.82446 | 30.05209 | 6180 ft | 205 kts | 288° |
| 2026-05-01 11:50 | 59.82860 | 30.02392 | 6594 ft | 218 kts | 289° |
| 2026-05-01 11:51 | 59.83560 | 29.99746 | 7009 ft | 220 kts | 319° |
| 2026-05-01 11:51 | 59.84879 | 29.98392 | 7589 ft | 219 kts | 352° |
| 2026-05-01 11:51 | 59.86394 | 29.98578 | 8232 ft | 221 kts | 11° |
| 2026-05-01 11:51 | 59.87900 | 29.99404 | 8767 ft | 230 kts | 14° |